Weather at Çıldır Airport

Public forecast

Using degrees Celsius for public forecast. Weather courtesy of forecast.io.

Current aviation weather report (METAR) for Çıldır Airport

Report is more than 6 hours old.

2022/11/14 14:50 (retrieved 2 years ago)

LTBD 141450Z 25008KT CAVOK 18/08 Q1018

Closest aviation forecast (TAF) to Çıldır Airport

Forecast is more than 12 hours old.

Closest forecast is Milas Bodrum International Airport, 35.6 nm (66.0 km) SSW.

2023/02/22 18:03 (retrieved 1 year ago)

TAF LTFE 221640Z 2218/2318 VRB02KT CAVOK BECMG 2222/2224 3500 BR BECMG 2302/2304 0800 FG SCT003 BECMG 2306/2308 CAVOK BECMG 2308/2310 26012KT FEW035 BECMG 2314/2317 VRB02KT CAVOK